Augusta, Michigan
Current Conditions -  °F | °C
As of 2:53 AM on Friday 28 Nov 2014 (Local Time) from KBTL Reporting Station
Overcast Overcast  
Wind Chill: -6°   Ceiling: 3800
Heat Index: -6°   Visibility: 10mi
Dew Point: -13°   Wind: 3mph
Humidity: 55%   Direction: 350°N
Pressure: 30.34"   Gusts: NA
Location:  42.34°N, 85.35°W
Report Text: KBTL 280753Z 35003KT 10SM OVC038 M06/M13 A3034 RMK AO2 SLP285 T10561133 $
Loading
Personal Weather Stations






























Interactive Weather Map New forecast layout! Learn more

10-Day Weather Forecast

Advertisements
Track Severe Weather on mobile